sensor_id;sensor_type;location;lat;lon;timestamp;pressure;altitude;pressure_sealevel;temperature;humidity
29935;BME280;19905;53.370;-6.314;2022-12-18T00:00:42;101039.84;;;1.77;100.00
29935;BME280;19905;53.370;-6.314;2022-12-18T00:03:11;101038.84;;;1.81;100.00
29935;BME280;19905;53.370;-6.314;2022-12-18T00:05:48;101028.59;;;1.76;100.00
29935;BME280;19905;53.370;-6.314;2022-12-18T00:08:17;101024.75;;;1.87;100.00
29935;BME280;19905;53.370;-6.314;2022-12-18T00:10:47;101034.66;;;2.02;100.00
29935;BME280;19905;53.370;-6.314;2022-12-18T00:13:17;101032.59;;;2.10;100.00
29935;BME280;19905;53.370;-6.314;2022-12-18T00:15:47;101030.69;;;2.15;100.00
29935;BME280;19905;53.370;-6.314;2022-12-18T00:18:16;101019.91;;;2.24;100.00
29935;BME280;19905;53.370;-6.314;2022-12-18T00:20:48;101027.06;;;2.19;100.00
29935;BME280;19905;53.370;-6.314;2022-12-18T00:23:16;101033.69;;;2.28;100.00
29935;BME280;19905;53.370;-6.314;2022-12-18T00:25:45;101031.38;;;2.44;100.00
29935;BME280;19905;53.370;-6.314;2022-12-18T00:28:14;101040.19;;;2.63;100.00
29935;BME280;19905;53.370;-6.314;2022-12-18T00:30:43;101042.34;;;2.75;100.00
29935;BME280;19905;53.370;-6.314;2022-12-18T00:33:12;101047.13;;;2.86;100.00
29935;BME280;19905;53.370;-6.314;2022-12-18T00:35:43;101042.00;;;2.85;100.00
29935;BME280;19905;53.370;-6.314;2022-12-18T00:38:15;101039.50;;;2.82;100.00
29935;BME280;19905;53.370;-6.314;2022-12-18T00:40:44;101033.41;;;2.81;100.00
29935;BME280;19905;53.370;-6.314;2022-12-18T00:43:13;101027.03;;;2.88;100.00
29935;BME280;19905;53.370;-6.314;2022-12-18T00:45:42;101022.69;;;2.89;100.00
29935;BME280;19905;53.370;-6.314;2022-12-18T00:48:11;101023.41;;;2.92;100.00
29935;BME280;19905;53.370;-6.314;2022-12-18T00:50:44;101024.13;;;2.96;100.00
29935;BME280;19905;53.370;-6.314;2022-12-18T00:53:12;101020.56;;;2.98;100.00
29935;BME280;19905;53.370;-6.314;2022-12-18T00:55:45;101013.50;;;3.00;100.00
29935;BME280;19905;53.370;-6.314;2022-12-18T00:58:16;101014.19;;;3.05;100.00
29935;BME280;19905;53.370;-6.314;2022-12-18T01:00:45;101012.97;;;3.14;100.00
29935;BME280;19905;53.370;-6.314;2022-12-18T01:03:14;101003.97;;;3.21;100.00
29935;BME280;19905;53.370;-6.314;2022-12-18T01:05:44;100999.53;;;3.23;100.00
29935;BME280;19905;53.370;-6.314;2022-12-18T01:08:12;100999.16;;;3.33;100.00
29935;BME280;19905;53.370;-6.314;2022-12-18T01:10:44;100997.84;;;3.43;100.00
29935;BME280;19905;53.370;-6.314;2022-12-18T01:13:12;100996.75;;;3.48;100.00
29935;BME280;19905;53.370;-6.314;2022-12-18T01:15:48;100997.72;;;3.46;100.00
29935;BME280;19905;53.370;-6.314;2022-12-18T01:18:18;100997.72;;;3.46;100.00
29935;BME280;19905;53.370;-6.314;2022-12-18T01:20:47;101002.94;;;3.46;100.00
29935;BME280;19905;53.370;-6.314;2022-12-18T01:23:17;101006.28;;;3.49;100.00
29935;BME280;19905;53.370;-6.314;2022-12-18T01:25:47;100994.59;;;3.58;100.00
29935;BME280;19905;53.370;-6.314;2022-12-18T01:28:16;100997.13;;;3.60;100.00
29935;BME280;19905;53.370;-6.314;2022-12-18T01:30:45;100985.00;;;3.59;100.00
29935;BME280;19905;53.370;-6.314;2022-12-18T01:33:13;100991.78;;;3.63;100.00
29935;BME280;19905;53.370;-6.314;2022-12-18T01:35:42;100991.63;;;3.66;100.00
29935;BME280;19905;53.370;-6.314;2022-12-18T01:38:11;100986.38;;;3.67;100.00
29935;BME280;19905;53.370;-6.314;2022-12-18T01:40:40;100983.41;;;3.75;100.00
29935;BME280;19905;53.370;-6.314;2022-12-18T01:43:10;100980.78;;;3.75;100.00
29935;BME280;19905;53.370;-6.314;2022-12-18T01:45:39;100973.66;;;3.78;100.00
29935;BME280;19905;53.370;-6.314;2022-12-18T01:48:10;100962.25;;;3.81;100.00
29935;BME280;19905;53.370;-6.314;2022-12-18T01:50:40;100948.38;;;3.79;100.00
29935;BME280;19905;53.370;-6.314;2022-12-18T01:53:13;100933.72;;;3.76;100.00
29935;BME280;19905;53.370;-6.314;2022-12-18T01:55:44;100927.69;;;3.74;100.00
29935;BME280;19905;53.370;-6.314;2022-12-18T01:58:18;100926.78;;;3.75;100.00
29935;BME280;19905;53.370;-6.314;2022-12-18T02:00:47;100919.72;;;3.77;100.00
29935;BME280;19905;53.370;-6.314;2022-12-18T02:03:18;100910.19;;;3.76;100.00
29935;BME280;19905;53.370;-6.314;2022-12-18T02:05:53;100904.25;;;3.73;100.00
29935;BME280;19905;53.370;-6.314;2022-12-18T02:08:30;100895.91;;;3.65;100.00
29935;BME280;19905;53.370;-6.314;2022-12-18T02:11:07;100886.59;;;3.59;100.00
29935;BME280;19905;53.370;-6.314;2022-12-18T02:13:43;100887.50;;;3.58;100.00
29935;BME280;19905;53.370;-6.314;2022-12-18T02:16:21;100887.44;;;3.60;100.00
29935;BME280;19905;53.370;-6.314;2022-12-18T02:18:57;100893.50;;;3.60;100.00
29935;BME280;19905;53.370;-6.314;2022-12-18T02:21:34;100902.19;;;3.61;100.00
29935;BME280;19905;53.370;-6.314;2022-12-18T02:24:18;100908.34;;;3.60;100.00
29935;BME280;19905;53.370;-6.314;2022-12-18T02:26:59;100902.13;;;3.62;100.00
29935;BME280;19905;53.370;-6.314;2022-12-18T02:29:32;100901.22;;;3.63;100.00
29935;BME280;19905;53.370;-6.314;2022-12-18T02:32:07;100896.44;;;3.73;100.00
29935;BME280;19905;53.370;-6.314;2022-12-18T02:34:39;100899.78;;;3.75;100.00
29935;BME280;19905;53.370;-6.314;2022-12-18T02:37:12;100885.97;;;3.73;100.00
29935;BME280;19905;53.370;-6.314;2022-12-18T02:39:44;100882.66;;;3.69;100.00
29935;BME280;19905;53.370;-6.314;2022-12-18T02:42:17;100874.16;;;3.64;100.00
29935;BME280;19905;53.370;-6.314;2022-12-18T02:44:48;100876.06;;;3.61;100.00
29935;BME280;19905;53.370;-6.314;2022-12-18T02:47:19;100889.28;;;3.58;100.00
29935;BME280;19905;53.370;-6.314;2022-12-18T02:49:55;100886.59;;;3.59;100.00
29935;BME280;19905;53.370;-6.314;2022-12-18T02:52:32;100875.22;;;3.60;100.00
29935;BME280;19905;53.370;-6.314;2022-12-18T02:55:16;100869.03;;;3.63;100.00
29935;BME280;19905;53.370;-6.314;2022-12-18T02:57:53;100861.03;;;3.66;100.00
29935;BME280;19905;53.370;-6.314;2022-12-18T03:00:25;100863.66;;;3.66;100.00
29935;BME280;19905;53.370;-6.314;2022-12-18T03:03:01;100843.47;;;3.69;100.00
29935;BME280;19905;53.370;-6.314;2022-12-18T03:05:38;100834.28;;;3.79;100.00
29935;BME280;19905;53.370;-6.314;2022-12-18T03:08:14;100834.56;;;3.92;100.00
29935;BME280;19905;53.370;-6.314;2022-12-18T03:10:56;100826.63;;;3.94;100.00
29935;BME280;19905;53.370;-6.314;2022-12-18T03:13:31;100805.50;;;3.98;100.00
29935;BME280;19905;53.370;-6.314;2022-12-18T03:16:04;100810.03;;;4.14;100.00
29935;BME280;19905;53.370;-6.314;2022-12-18T03:18:40;100804.56;;;4.18;100.00
29935;BME280;19905;53.370;-6.314;2022-12-18T03:21:14;100791.06;;;4.27;100.00
29935;BME280;19905;53.370;-6.314;2022-12-18T03:23:49;100785.03;;;4.25;100.00
29935;BME280;19905;53.370;-6.314;2022-12-18T03:26:23;100784.91;;;4.28;100.00
29935;BME280;19905;53.370;-6.314;2022-12-18T03:28:57;100768.38;;;4.28;100.00
29935;BME280;19905;53.370;-6.314;2022-12-18T03:31:29;100773.69;;;4.26;100.00
29935;BME280;19905;53.370;-6.314;2022-12-18T03:34:02;100758.63;;;4.31;100.00
29935;BME280;19905;53.370;-6.314;2022-12-18T03:36:32;100754.94;;;4.36;100.00
29935;BME280;19905;53.370;-6.314;2022-12-18T03:39:01;100762.78;;;4.36;100.00
29935;BME280;19905;53.370;-6.314;2022-12-18T03:41:37;100759.97;;;4.39;100.00
29935;BME280;19905;53.370;-6.314;2022-12-18T03:44:13;100767.59;;;4.43;100.00
29935;BME280;19905;53.370;-6.314;2022-12-18T03:46:49;100755.53;;;4.41;100.00
29935;BME280;19905;53.370;-6.314;2022-12-18T03:49:26;100752.91;;;4.41;100.00
29935;BME280;19905;53.370;-6.314;2022-12-18T03:52:02;100756.59;;;4.37;100.00
29935;BME280;19905;53.370;-6.314;2022-12-18T03:54:35;100762.53;;;4.40;100.00
29935;BME280;19905;53.370;-6.314;2022-12-18T03:57:09;100758.53;;;4.50;100.00
29935;BME280;19905;53.370;-6.314;2022-12-18T03:59:41;100744.66;;;4.48;100.00
29935;BME280;19905;53.370;-6.314;2022-12-18T04:02:12;100730.84;;;4.46;100.00
29935;BME280;19905;53.370;-6.314;2022-12-18T04:04:43;100716.97;;;4.44;100.00
29935;BME280;19905;53.370;-6.314;2022-12-18T04:07:16;100717.69;;;4.48;100.00
29935;BME280;19905;53.370;-6.314;2022-12-18T04:09:47;100715.84;;;4.50;100.00
29935;BME280;19905;53.370;-6.314;2022-12-18T04:12:17;100719.34;;;4.49;100.00
29935;BME280;19905;53.370;-6.314;2022-12-18T04:14:49;100710.53;;;4.51;100.00
29935;BME280;19905;53.370;-6.314;2022-12-18T04:17:19;100713.66;;;4.58;100.00
29935;BME280;19905;53.370;-6.314;2022-12-18T04:19:49;100710.97;;;4.59;100.00
29935;BME280;19905;53.370;-6.314;2022-12-18T04:22:19;100704.31;;;4.54;100.00
29935;BME280;19905;53.370;-6.314;2022-12-18T04:24:49;100683.19;;;4.57;100.00
29935;BME280;19905;53.370;-6.314;2022-12-18T04:27:18;100679.41;;;4.63;100.00
29935;BME280;19905;53.370;-6.314;2022-12-18T04:29:49;100676.72;;;4.64;100.00
29935;BME280;19905;53.370;-6.314;2022-12-18T04:32:17;100675.56;;;4.70;100.00
29935;BME280;19905;53.370;-6.314;2022-12-18T04:34:47;100660.84;;;4.67;100.00
29935;BME280;19905;53.370;-6.314;2022-12-18T04:37:15;100647.03;;;4.65;100.00
29935;BME280;19905;53.370;-6.314;2022-12-18T04:39:44;100649.63;;;4.65;100.00
29935;BME280;19905;53.370;-6.314;2022-12-18T04:42:14;100657.72;;;4.61;100.00
29935;BME280;19905;53.370;-6.314;2022-12-18T04:44:43;100649.25;;;4.73;100.00
29935;BME280;19905;53.370;-6.314;2022-12-18T04:47:13;100653.38;;;4.77;100.00
29935;BME280;19905;53.370;-6.314;2022-12-18T04:49:42;100642.25;;;4.73;100.00
29935;BME280;19905;53.370;-6.314;2022-12-18T04:52:10;100640.38;;;4.75;100.00
29935;BME280;19905;53.370;-6.314;2022-12-18T04:54:40;100644.50;;;4.79;100.00
29935;BME280;19905;53.370;-6.314;2022-12-18T04:57:09;100641.06;;;4.79;100.00
29935;BME280;19905;53.370;-6.314;2022-12-18T04:59:39;100631.19;;;4.84;100.00
29935;BME280;19905;53.370;-6.314;2022-12-18T05:02:07;100615.81;;;4.94;100.00
29935;BME280;19905;53.370;-6.314;2022-12-18T05:04:38;100628.16;;;4.92;100.00
29935;BME280;19905;53.370;-6.314;2022-12-18T05:07:07;100610.84;;;4.89;100.00
29935;BME280;19905;53.370;-6.314;2022-12-18T05:09:37;100607.53;;;4.85;100.00
29935;BME280;19905;53.370;-6.314;2022-12-18T05:12:05;100592.88;;;4.83;100.00
29935;BME280;19905;53.370;-6.314;2022-12-18T05:14:34;100602.50;;;4.82;100.00
29935;BME280;19905;53.370;-6.314;2022-12-18T05:17:03;100576.81;;;4.89;100.00
29935;BME280;19905;53.370;-6.314;2022-12-18T05:19:32;100572.94;;;4.96;100.00
29935;BME280;19905;53.370;-6.314;2022-12-18T05:22:04;100564.31;;;4.94;100.00
29935;BME280;19905;53.370;-6.314;2022-12-18T05:24:38;100560.28;;;4.89;100.00
29935;BME280;19905;53.370;-6.314;2022-12-18T05:27:07;100546.25;;;4.90;100.00
29935;BME280;19905;53.370;-6.314;2022-12-18T05:29:36;100545.16;;;4.94;100.00
29935;BME280;19905;53.370;-6.314;2022-12-18T05:32:04;100558.44;;;4.91;100.00
29935;BME280;19905;53.370;-6.314;2022-12-18T05:34:33;100528.78;;;4.90;100.00
29935;BME280;19905;53.370;-6.314;2022-12-18T05:37:01;100537.97;;;4.97;100.00
29935;BME280;19905;53.370;-6.314;2022-12-18T05:39:33;100536.72;;;5.04;100.00
29935;BME280;19905;53.370;-6.314;2022-12-18T05:42:01;100532.91;;;4.94;100.00
29935;BME280;19905;53.370;-6.314;2022-12-18T05:44:31;100517.31;;;4.93;100.00
29935;BME280;19905;53.370;-6.314;2022-12-18T05:46:59;100512.16;;;4.91;100.00
29935;BME280;19905;53.370;-6.314;2022-12-18T05:49:29;100506.16;;;4.89;100.00
29935;BME280;19905;53.370;-6.314;2022-12-18T05:51:59;100517.66;;;4.87;100.00
29935;BME280;19905;53.370;-6.314;2022-12-18T05:54:28;100504.38;;;4.90;100.00
29935;BME280;19905;53.370;-6.314;2022-12-18T05:56:59;100508.78;;;4.89;100.00
29935;BME280;19905;53.370;-6.314;2022-12-18T05:59:29;100488.09;;;4.84;100.00
29935;BME280;19905;53.370;-6.314;2022-12-18T06:01:57;100500.34;;;4.84;100.00
29935;BME280;19905;53.370;-6.314;2022-12-18T06:04:26;100502.13;;;4.83;100.00
29935;BME280;19905;53.370;-6.314;2022-12-18T06:06:58;100503.22;;;4.79;100.00
29935;BME280;19905;53.370;-6.314;2022-12-18T06:09:26;100499.84;;;4.77;100.00
29935;BME280;19905;53.370;-6.314;2022-12-18T06:11:55;100490.97;;;4.80;100.00
29935;BME280;19905;53.370;-6.314;2022-12-18T06:14:25;100488.34;;;4.80;100.00
29935;BME280;19905;53.370;-6.314;2022-12-18T06:16:54;100478.91;;;4.77;100.00
29935;BME280;19905;53.370;-6.314;2022-12-18T06:19:23;100469.28;;;4.78;100.00
29935;BME280;19905;53.370;-6.314;2022-12-18T06:21:52;100460.50;;;4.79;100.00
29935;BME280;19905;53.370;-6.314;2022-12-18T06:24:26;100455.38;;;4.77;100.00
29935;BME280;19905;53.370;-6.314;2022-12-18T06:26:56;100449.34;;;4.75;100.00
29935;BME280;19905;53.370;-6.314;2022-12-18T06:29:26;100423.13;;;4.77;100.00
29935;BME280;19905;53.370;-6.314;2022-12-18T06:31:54;100441.69;;;4.72;100.00
29935;BME280;19905;53.370;-6.314;2022-12-18T06:34:26;100422.34;;;4.75;100.00
29935;BME280;19905;53.370;-6.314;2022-12-18T06:36:55;100423.19;;;4.75;100.00
29935;BME280;19905;53.370;-6.314;2022-12-18T06:39:23;100418.81;;;4.76;100.00
29935;BME280;19905;53.370;-6.314;2022-12-18T06:41:56;100404.22;;;4.72;100.00
29935;BME280;19905;53.370;-6.314;2022-12-18T06:44:27;100389.19;;;4.75;100.00
29935;BME280;19905;53.370;-6.314;2022-12-18T06:46:57;100384.22;;;4.71;100.00
29935;BME280;19905;53.370;-6.314;2022-12-18T06:49:26;100390.28;;;4.71;100.00
29935;BME280;19905;53.370;-6.314;2022-12-18T06:51:56;100394.09;;;4.66;100.00
29935;BME280;19905;53.370;-6.314;2022-12-18T06:54:25;100394.78;;;4.69;100.00
29935;BME280;19905;53.370;-6.314;2022-12-18T06:56:57;100372.50;;;4.62;100.00
29935;BME280;19905;53.370;-6.314;2022-12-18T06:59:28;100356.22;;;4.57;100.00
29935;BME280;19905;53.370;-6.314;2022-12-18T07:01:57;100359.88;;;4.54;100.00
29935;BME280;19905;53.370;-6.314;2022-12-18T07:04:28;100349.84;;;4.47;100.00
29935;BME280;19905;53.370;-6.314;2022-12-18T07:06:59;100351.63;;;4.46;100.00
29935;BME280;19905;53.370;-6.314;2022-12-18T07:09:27;100344.88;;;4.42;100.00
29935;BME280;19905;53.370;-6.314;2022-12-18T07:11:56;100327.09;;;4.33;100.00
29935;BME280;19905;53.370;-6.314;2022-12-18T07:14:25;100333.84;;;4.37;100.00
29935;BME280;19905;53.370;-6.314;2022-12-18T07:16:57;100305.59;;;4.28;100.00
29935;BME280;19905;53.370;-6.314;2022-12-18T07:19:27;100307.94;;;4.32;100.00
29935;BME280;19905;53.370;-6.314;2022-12-18T07:21:56;100309.22;;;4.25;100.00
29935;BME280;19905;53.370;-6.314;2022-12-18T07:24:25;100312.25;;;4.33;100.00
29935;BME280;19905;53.370;-6.314;2022-12-18T07:26:56;100303.66;;;4.31;100.00
29935;BME280;19905;53.370;-6.314;2022-12-18T07:29:31;100294.28;;;4.27;100.00
29935;BME280;19905;53.370;-6.314;2022-12-18T07:32:03;100267.22;;;4.28;100.00
29935;BME280;19905;53.370;-6.314;2022-12-18T07:34:32;100271.78;;;4.25;100.00
29935;BME280;19905;53.370;-6.314;2022-12-18T07:37:02;100268.91;;;4.29;100.00
29935;BME280;19905;53.370;-6.314;2022-12-18T07:39:31;100272.53;;;4.27;100.00
29935;BME280;19905;53.370;-6.314;2022-12-18T07:42:00;100270.81;;;4.42;100.00
29935;BME280;19905;53.370;-6.314;2022-12-18T07:44:47;100255.50;;;4.36;100.00
29935;BME280;19905;53.370;-6.314;2022-12-18T07:47:18;100249.72;;;4.45;100.00
29935;BME280;19905;53.370;-6.314;2022-12-18T07:49:48;100238.06;;;4.50;100.00
29935;BME280;19905;53.370;-6.314;2022-12-18T07:52:17;100220.97;;;4.45;100.00
29935;BME280;19905;53.370;-6.314;2022-12-18T07:54:53;100203.66;;;4.42;100.00
29935;BME280;19905;53.370;-6.314;2022-12-18T07:57:23;100201.34;;;4.52;100.00
29935;BME280;19905;53.370;-6.314;2022-12-18T08:00:13;100191.66;;;4.54;100.00
29935;BME280;19905;53.370;-6.314;2022-12-18T08:02:43;100177.34;;;4.59;100.00
29935;BME280;19905;53.370;-6.314;2022-12-18T08:05:14;100168.84;;;4.56;100.00
29935;BME280;19905;53.370;-6.314;2022-12-18T08:07:44;100158.56;;;4.53;100.00
29935;BME280;19905;53.370;-6.314;2022-12-18T08:10:12;100154.00;;;4.56;100.00
29935;BME280;19905;53.370;-6.314;2022-12-18T08:12:41;100155.09;;;4.52;100.00
29935;BME280;19905;53.370;-6.314;2022-12-18T08:15:16;100149.69;;;4.55;100.00
29935;BME280;19905;53.370;-6.314;2022-12-18T08:17:47;100139.69;;;4.62;100.00
29935;BME280;19905;53.370;-6.314;2022-12-18T08:20:15;100140.06;;;4.56;100.00
29935;BME280;19905;53.370;-6.314;2022-12-18T08:22:45;100139.34;;;4.54;100.00
29935;BME280;19905;53.370;-6.314;2022-12-18T08:25:14;100136.44;;;4.58;100.00
29935;BME280;19905;53.370;-6.314;2022-12-18T08:27:44;100130.84;;;4.50;100.00
29935;BME280;19905;53.370;-6.314;2022-12-18T08:30:13;100135.22;;;4.50;100.00
29935;BME280;19905;53.370;-6.314;2022-12-18T08:32:41;100117.00;;;4.48;100.00
29935;BME280;19905;53.370;-6.314;2022-12-18T08:35:11;100123.16;;;4.47;100.00
29935;BME280;19905;53.370;-6.314;2022-12-18T08:37:44;100103.84;;;4.50;100.00
29935;BME280;19905;53.370;-6.314;2022-12-18T08:40:13;100101.97;;;4.52;100.00
29935;BME280;19905;53.370;-6.314;2022-12-18T08:42:42;100100.09;;;4.54;100.00
29935;BME280;19905;53.370;-6.314;2022-12-18T08:45:28;100072.63;;;4.47;100.00
29935;BME280;19905;53.370;-6.314;2022-12-18T08:47:56;100080.47;;;4.47;100.00
29935;BME280;19905;53.370;-6.314;2022-12-18T08:50:28;100075.16;;;4.48;100.00
29935;BME280;19905;53.370;-6.314;2022-12-18T08:52:56;100070.69;;;4.50;100.00
29935;BME280;19905;53.370;-6.314;2022-12-18T08:55:25;100081.81;;;4.54;100.00
29935;BME280;19905;53.370;-6.314;2022-12-18T08:57:53;100080.84;;;4.55;100.00
29935;BME280;19905;53.370;-6.314;2022-12-18T09:00:27;100078.03;;;4.58;100.00
29935;BME280;19905;53.370;-6.314;2022-12-18T09:02:55;100076.00;;;4.63;100.00
29935;BME280;19905;53.370;-6.314;2022-12-18T09:05:28;100069.06;;;4.62;100.00
29935;BME280;19905;53.370;-6.314;2022-12-18T09:07:57;100062.25;;;4.59;100.00
29935;BME280;19905;53.370;-6.314;2022-12-18T09:10:25;100063.66;;;4.65;100.00
29935;BME280;19905;53.370;-6.314;2022-12-18T09:12:57;100067.88;;;4.68;100.00
29935;BME280;19905;53.370;-6.314;2022-12-18T09:15:26;100073.28;;;4.65;100.00
29935;BME280;19905;53.370;-6.314;2022-12-18T09:17:55;100066.38;;;4.64;100.00
29935;BME280;19905;53.370;-6.314;2022-12-18T09:20:24;100051.53;;;4.64;100.00
29935;BME280;19905;53.370;-6.314;2022-12-18T09:22:56;100061.97;;;4.64;100.00
29935;BME280;19905;53.370;-6.314;2022-12-18T09:25:28;100048.13;;;4.62;100.00
29935;BME280;19905;53.370;-6.314;2022-12-18T09:28:00;100038.03;;;4.70;100.00
29935;BME280;19905;53.370;-6.314;2022-12-18T09:30:29;100053.09;;;4.67;100.00
29935;BME280;19905;53.370;-6.314;2022-12-18T09:33:01;100039.72;;;4.71;100.00
29935;BME280;19905;53.370;-6.314;2022-12-18T09:35:29;100035.53;;;4.69;100.00
29935;BME280;19905;53.370;-6.314;2022-12-18T09:38:00;100050.47;;;4.67;100.00
29935;BME280;19905;53.370;-6.314;2022-12-18T09:40:34;100037.31;;;4.68;100.00
29935;BME280;19905;53.370;-6.314;2022-12-18T09:43:05;100036.81;;;4.76;100.00
29935;BME280;19905;53.370;-6.314;2022-12-18T09:45:47;100034.47;;;4.71;100.00
29935;BME280;19905;53.370;-6.314;2022-12-18T09:48:22;100031.56;;;4.76;100.00
29935;BME280;19905;53.370;-6.314;2022-12-18T09:50:57;100032.88;;;4.83;100.00
29935;BME280;19905;53.370;-6.314;2022-12-18T09:53:32;100024.19;;;4.82;100.00
29935;BME280;19905;53.370;-6.314;2022-12-18T09:56:04;100010.91;;;4.85;100.00
29935;BME280;19905;53.370;-6.314;2022-12-18T09:58:40;100027.75;;;4.81;100.00
29935;BME280;19905;53.370;-6.314;2022-12-18T10:01:12;100025.03;;;4.83;100.00
29935;BME280;19905;53.370;-6.314;2022-12-18T10:03:43;100019.63;;;4.86;100.00
29935;BME280;19905;53.370;-6.314;2022-12-18T10:06:15;100030.16;;;4.84;100.00
29935;BME280;19905;53.370;-6.314;2022-12-18T10:08:52;100022.22;;;4.86;100.00
29935;BME280;19905;53.370;-6.314;2022-12-18T10:11:34;99997.53;;;4.90;100.00
29935;BME280;19905;53.370;-6.314;2022-12-18T10:14:14;100000.25;;;4.89;100.00
29935;BME280;19905;53.370;-6.314;2022-12-18T10:16:52;99995.97;;;4.88;100.00
29935;BME280;19905;53.370;-6.314;2022-12-18T10:19:39;99996.50;;;4.93;100.00
29935;BME280;19905;53.370;-6.314;2022-12-18T10:22:20;99990.25;;;4.95;100.00
29935;BME280;19905;53.370;-6.314;2022-12-18T10:24:56;99975.56;;;4.93;100.00
29935;BME280;19905;53.370;-6.314;2022-12-18T10:27:27;99976.00;;;4.99;100.00
29935;BME280;19905;53.370;-6.314;2022-12-18T10:29:57;99963.19;;;4.95;100.00
29935;BME280;19905;53.370;-6.314;2022-12-18T10:32:29;99967.84;;;5.04;100.00
29935;BME280;19905;53.370;-6.314;2022-12-18T10:34:58;99950.69;;;5.00;100.00
29935;BME280;19905;53.370;-6.314;2022-12-18T10:37:29;99940.94;;;5.02;100.00
29935;BME280;19905;53.370;-6.314;2022-12-18T10:40:11;99936.03;;;5.10;100.00
29935;BME280;19905;53.370;-6.314;2022-12-18T10:43:03;99909.66;;;5.13;100.00
29935;BME280;19905;53.370;-6.314;2022-12-18T10:45:32;99917.41;;;5.15;100.00
29935;BME280;19905;53.370;-6.314;2022-12-18T10:48:03;99911.97;;;5.18;100.00
29935;BME280;19905;53.370;-6.314;2022-12-18T10:50:33;99908.19;;;5.22;100.00
29935;BME280;19905;53.370;-6.314;2022-12-18T10:53:24;99914.91;;;5.26;100.00
29935;BME280;19905;53.370;-6.314;2022-12-18T10:55:58;99909.66;;;5.26;100.00
29935;BME280;19905;53.370;-6.314;2022-12-18T10:58:28;99916.59;;;5.27;100.00
29935;BME280;19905;53.370;-6.314;2022-12-18T11:01:08;99913.03;;;5.28;100.00
29935;BME280;19905;53.370;-6.314;2022-12-18T11:03:39;99907.50;;;5.32;100.00
29935;BME280;19905;53.370;-6.314;2022-12-18T11:06:11;99908.97;;;5.37;100.00
29935;BME280;19905;53.370;-6.314;2022-12-18T11:08:43;99894.94;;;5.38;100.00
29935;BME280;19905;53.370;-6.314;2022-12-18T11:11:20;99885.16;;;5.40;100.00
29935;BME280;19905;53.370;-6.314;2022-12-18T11:14:00;99868.31;;;5.44;100.00
29935;BME280;19905;53.370;-6.314;2022-12-18T11:16:34;99862.13;;;5.45;100.00
29935;BME280;19905;53.370;-6.314;2022-12-18T11:19:17;99867.91;;;5.50;100.00
29935;BME280;19905;53.370;-6.314;2022-12-18T11:21:48;99858.16;;;5.52;100.00
29935;BME280;19905;53.370;-6.314;2022-12-18T11:24:30;99851.25;;;5.51;100.00
29935;BME280;19905;53.370;-6.314;2022-12-18T11:27:04;99854.50;;;5.54;100.00
29935;BME280;19905;53.370;-6.314;2022-12-18T11:29:35;99837.06;;;5.66;100.00
29935;BME280;19905;53.370;-6.314;2022-12-18T11:32:31;99827.41;;;5.67;100.00
29935;BME280;19905;53.370;-6.314;2022-12-18T11:35:13;99824.47;;;5.71;100.00
29935;BME280;19905;53.370;-6.314;2022-12-18T11:37:49;99815.78;;;5.71;100.00
29935;BME280;19905;53.370;-6.314;2022-12-18T11:40:29;99810.34;;;5.74;100.00
29935;BME280;19905;53.370;-6.314;2022-12-18T11:43:12;99806.44;;;5.79;100.00
29935;BME280;19905;53.370;-6.314;2022-12-18T11:45:48;99801.59;;;5.86;100.00
29935;BME280;19905;53.370;-6.314;2022-12-18T11:48:23;99808.22;;;5.92;100.00
29935;BME280;19905;53.370;-6.314;2022-12-18T11:50:55;99799.28;;;5.94;100.00
29935;BME280;19905;53.370;-6.314;2022-12-18T11:53:25;99791.22;;;5.97;100.00
29935;BME280;19905;53.370;-6.314;2022-12-18T11:56:03;99780.41;;;6.02;100.00
29935;BME280;19905;53.370;-6.314;2022-12-18T11:58:45;99783.72;;;6.04;100.00
29935;BME280;19905;53.370;-6.314;2022-12-18T12:01:29;99770.53;;;6.05;100.00
29935;BME280;19905;53.370;-6.314;2022-12-18T12:04:34;99769.38;;;6.09;100.00
29935;BME280;19905;53.370;-6.314;2022-12-18T12:07:18;99756.84;;;6.13;100.00
29935;BME280;19905;53.370;-6.314;2022-12-18T12:09:59;99748.91;;;6.15;100.00
29935;BME280;19905;53.370;-6.314;2022-12-18T12:12:37;99740.78;;;6.18;100.00
29935;BME280;19905;53.370;-6.314;2022-12-18T12:15:30;99709.81;;;6.23;100.00
29935;BME280;19905;53.370;-6.314;2022-12-18T12:18:17;99724.03;;;6.31;100.00
29935;BME280;19905;53.370;-6.314;2022-12-18T12:21:00;99704.41;;;6.37;100.00
29935;BME280;19905;53.370;-6.314;2022-12-18T12:23:40;99704.06;;;6.42;100.00
29935;BME280;19905;53.370;-6.314;2022-12-18T12:26:18;99694.25;;;6.44;100.00
29935;BME280;19905;53.370;-6.314;2022-12-18T12:28:59;99682.72;;;6.46;100.00
29935;BME280;19905;53.370;-6.314;2022-12-18T12:31:43;99677.22;;;6.49;100.00
29935;BME280;19905;53.370;-6.314;2022-12-18T12:34:21;99666.03;;;6.58;100.00
29935;BME280;19905;53.370;-6.314;2022-12-18T12:37:11;99668.91;;;6.67;100.00
29935;BME280;19905;53.370;-6.314;2022-12-18T12:39:46;99665.44;;;6.77;100.00
29935;BME280;19905;53.370;-6.314;2022-12-18T12:42:20;99638.00;;;6.81;100.00
29935;BME280;19905;53.370;-6.314;2022-12-18T12:45:16;99636.69;;;6.87;100.00
29935;BME280;19905;53.370;-6.314;2022-12-18T12:47:49;99613.19;;;6.97;100.00
29935;BME280;19905;53.370;-6.314;2022-12-18T12:50:20;99609.94;;;7.04;100.00
29935;BME280;19905;53.370;-6.314;2022-12-18T12:52:52;99593.00;;;7.08;100.00
29935;BME280;19905;53.370;-6.314;2022-12-18T12:55:23;99602.75;;;7.18;100.00
29935;BME280;19905;53.370;-6.314;2022-12-18T12:57:59;99594.38;;;7.24;100.00
29935;BME280;19905;53.370;-6.314;2022-12-18T13:00:39;99593.91;;;7.30;100.00
29935;BME280;19905;53.370;-6.314;2022-12-18T13:03:27;99583.88;;;7.35;100.00
29935;BME280;19905;53.370;-6.314;2022-12-18T13:06:03;99572.97;;;7.39;100.00
29935;BME280;19905;53.370;-6.314;2022-12-18T13:08:54;99556.59;;;7.47;100.00
29935;BME280;19905;53.370;-6.314;2022-12-18T13:11:31;99557.06;;;7.52;100.00